Time;durP1;ratioP1;P1;durP2;ratioP2;P2;SDS_P1;SDS_P2;PMS_P1;PMS_P2;Temp;Humidity;BMP_temperature;BMP_pressure;BME280_temperature;BME280_humidity;BME280_pressure;Samples;Min_cycle;Max_cycle;Signal;HPM_P1;HPM_P2
2023/09/02 00:01:59;;;;;;;8.48;1.88;;;;;;;;;;4987786;28;20056;-83
2023/09/02 00:04:29;;;;;;;6.20;1.63;;;;;;;;;;5007005;28;20053;-83
2023/09/02 00:06:58;;;;;;;4.32;1.05;;;;;;;;;;4995105;28;20080;-83
2023/09/02 00:09:25;;;;;;;13.20;2.47;;;;;;;;;;5010650;28;20050;-83
2023/09/02 00:11:55;;;;;;;6.30;1.75;;;;;;;;;;5009527;28;20504;-83
2023/09/02 00:14:25;;;;;;;36.03;4.85;;;;;;;;;;5013176;28;20503;-83
2023/09/02 00:16:52;;;;;;;70.57;8.77;;;;;;;;;;5009211;28;20038;-83
2023/09/02 00:19:22;;;;;;;46.90;6.20;;;;;;;;;;5009961;28;20531;-83
2023/09/02 00:21:52;;;;;;;25.75;4.30;;;;;;;;;;4994768;28;20065;-82
2023/09/02 00:24:23;;;;;;;5.72;2.08;;;;;;;;;;5009677;28;20440;-82
2023/09/02 00:26:55;;;;;;;25.48;4.13;;;;;;;;;;4981793;28;20064;-83
2023/09/02 00:29:22;;;;;;;20.77;3.75;;;;;;;;;;5002907;28;20057;-83
2023/09/02 00:31:52;;;;;;;48.55;4.43;;;;;;;;;;5004886;28;20145;-83
2023/09/02 00:34:21;;;;;;;29.10;4.70;;;;;;;;;;4993446;28;20535;-83
2023/09/02 00:36:49;;;;;;;36.63;5.47;;;;;;;;;;5003071;28;20057;-82
2023/09/02 00:39:19;;;;;;;15.90;3.17;;;;;;;;;;5009922;28;20405;-82
2023/09/02 00:41:51;;;;;;;30.10;4.38;;;;;;;;;;5010653;28;20042;-82
2023/09/02 00:44:23;;;;;;;18.45;3.13;;;;;;;;;;4994917;28;20057;-82
2023/09/02 00:46:50;;;;;;;10.18;2.15;;;;;;;;;;4992431;28;20053;-83
2023/09/02 00:49:20;;;;;;;8.07;1.73;;;;;;;;;;5009568;28;20073;-83
2023/09/02 00:51:49;;;;;;;10.77;2.92;;;;;;;;;;4998298;28;20057;-83
2023/09/02 00:54:19;;;;;;;5.05;2.60;;;;;;;;;;4992770;28;20050;-83
2023/09/02 00:56:46;;;;;;;10.57;1.70;;;;;;;;;;4989225;28;20054;-83
2023/09/02 00:59:15;;;;;;;6.38;1.58;;;;;;;;;;5011144;28;20053;-83
2023/09/02 01:01:45;;;;;;;9.88;3.00;;;;;;;;;;4987296;28;20050;-83
2023/09/02 01:04:12;;;;;;;6.20;1.67;;;;;;;;;;4992657;28;20066;-83
2023/09/02 01:06:40;;;;;;;4.68;1.23;;;;;;;;;;4994539;28;20053;-82
2023/09/02 01:09:07;;;;;;;2.95;1.80;;;;;;;;;;5002129;28;20053;-83
2023/09/02 01:11:37;;;;;;;22.35;5.13;;;;;;;;;;4989041;28;20049;-83
2023/09/02 01:14:08;;;;;;;8.07;2.38;;;;;;;;;;5007082;28;20061;-83
2023/09/02 01:16:37;;;;;;;12.85;2.90;;;;;;;;;;4986668;28;20060;-83
2023/09/02 01:19:04;;;;;;;18.65;3.40;;;;;;;;;;5027433;28;20038;-83
2023/09/02 01:21:49;;;;;;;24.73;3.60;;;;;;;;;;5001774;28;20064;-83
2023/09/02 01:24:56;;;;;;;39.67;4.75;;;;;;;;;;4994516;28;20050;-83
2023/09/02 01:27:29;;;;;;;24.08;3.13;;;;;;;;;;4990923;28;20053;-83
2023/09/02 01:30:02;;;;;;;11.38;2.70;;;;;;;;;;5006512;28;20050;-83
2023/09/02 01:32:34;;;;;;;10.05;3.30;;;;;;;;;;4989956;28;20051;-83
2023/09/02 01:35:06;;;;;;;15.07;3.10;;;;;;;;;;4989291;28;20054;-83
2023/09/02 01:37:34;;;;;;;13.82;2.80;;;;;;;;;;4999902;28;20051;-83
2023/09/02 01:40:07;;;;;;;4.32;1.52;;;;;;;;;;4987635;28;20050;-83
2023/09/02 01:42:41;;;;;;;8.68;2.83;;;;;;;;;;5020232;28;20061;-83
2023/09/02 01:45:11;;;;;;;3.47;1.25;;;;;;;;;;4981212;28;20057;-83
2023/09/02 01:47:39;;;;;;;2.28;1.45;;;;;;;;;;5009193;28;20405;-81
2023/09/02 01:50:12;;;;;;;2.93;1.17;;;;;;;;;;5009505;28;20069;-81
2023/09/02 01:52:45;;;;;;;2.25;1.10;;;;;;;;;;5014456;28;20308;-81
2023/09/02 01:55:12;;;;;;;2.65;1.00;;;;;;;;;;4991489;28;20053;-81
2023/09/02 01:57:44;;;;;;;4.65;1.55;;;;;;;;;;5009733;28;20046;-81
2023/09/02 02:00:16;;;;;;;1.70;1.50;;;;;;;;;;5002456;28;20065;-81
2023/09/02 02:02:49;;;;;;;2.72;1.85;;;;;;;;;;5006168;28;20052;-81
2023/09/02 02:05:25;;;;;;;6.07;2.40;;;;;;;;;;5006157;28;20057;-81
2023/09/02 02:07:58;;;;;;;1.00;0.85;;;;;;;;;;5011289;28;20061;-81
2023/09/02 02:10:27;;;;;;;1.80;1.25;;;;;;;;;;5011658;28;20050;-81
2023/09/02 02:13:02;;;;;;;2.35;0.98;;;;;;;;;;5006475;28;20046;-81
2023/09/02 02:15:29;;;;;;;1.80;0.88;;;;;;;;;;5003320;28;20473;-81
2023/09/02 02:17:56;;;;;;;1.70;0.88;;;;;;;;;;5023361;28;20482;-81
2023/09/02 02:20:27;;;;;;;5.20;1.27;;;;;;;;;;4996143;28;20501;-81
2023/09/02 02:22:54;;;;;;;3.60;1.33;;;;;;;;;;5012433;28;20053;-81
2023/09/02 02:25:21;;;;;;;2.55;1.27;;;;;;;;;;4990547;28;20053;-81
2023/09/02 02:27:51;;;;;;;2.97;1.75;;;;;;;;;;4995485;28;20046;-81
2023/09/02 02:30:20;;;;;;;3.08;1.40;;;;;;;;;;5011427;28;20416;-81
2023/09/02 02:32:49;;;;;;;6.28;2.03;;;;;;;;;;4990708;28;20050;-81
2023/09/02 02:35:22;;;;;;;4.95;2.00;;;;;;;;;;5014112;28;20539;-81
2023/09/02 02:37:55;;;;;;;4.45;2.03;;;;;;;;;;5006839;28;20050;-81
2023/09/02 02:40:23;;;;;;;3.50;1.58;;;;;;;;;;5022102;28;20500;-81
2023/09/02 02:42:52;;;;;;;12.32;1.90;;;;;;;;;;4996883;28;20057;-81
2023/09/02 02:45:24;;;;;;;5.15;1.67;;;;;;;;;;5023049;28;20042;-81
2023/09/02 02:47:51;;;;;;;8.40;1.50;;;;;;;;;;4997479;28;20113;-81
2023/09/02 02:50:21;;;;;;;6.57;2.40;;;;;;;;;;5008857;28;20050;-81
2023/09/02 02:52:50;;;;;;;4.90;1.75;;;;;;;;;;5018883;28;20114;-81
2023/09/02 02:55:20;;;;;;;43.17;6.18;;;;;;;;;;5008875;28;20055;-81
2023/09/02 02:57:50;;;;;;;24.58;3.75;;;;;;;;;;5005885;28;20053;-81
2023/09/02 03:00:20;;;;;;;8.90;2.58;;;;;;;;;;5011858;28;20049;-81
2023/09/02 03:02:51;;;;;;;8.13;1.50;;;;;;;;;;5013984;28;20083;-81
2023/09/02 03:05:20;;;;;;;3.47;1.85;;;;;;;;;;4994093;28;20520;-81
2023/09/02 03:07:50;;;;;;;18.23;2.75;;;;;;;;;;5015265;28;20057;-81
2023/09/02 03:10:19;;;;;;;2.53;1.10;;;;;;;;;;4996624;28;20050;-81
2023/09/02 03:12:47;;;;;;;8.65;2.05;;;;;;;;;;5017560;28;20042;-81
2023/09/02 03:15:14;;;;;;;13.65;3.80;;;;;;;;;;5013854;28;20042;-81
2023/09/02 03:17:42;;;;;;;36.25;4.93;;;;;;;;;;5006208;28;20671;-81
2023/09/02 03:20:13;;;;;;;33.30;4.65;;;;;;;;;;4998893;28;20046;-81
2023/09/02 03:22:41;;;;;;;10.65;1.80;;;;;;;;;;4997728;28;20061;-81
2023/09/02 03:25:11;;;;;;;12.45;3.25;;;;;;;;;;4998469;28;20070;-81
2023/09/02 03:27:41;;;;;;;27.98;3.97;;;;;;;;;;5015755;28;20404;-81
2023/09/02 03:30:09;;;;;;;62.28;5.63;;;;;;;;;;5010929;28;20485;-81
2023/09/02 03:32:37;;;;;;;28.90;3.85;;;;;;;;;;5015990;28;20050;-81
2023/09/02 03:35:08;;;;;;;17.33;2.33;;;;;;;;;;5014807;28;20373;-81
2023/09/02 03:37:37;;;;;;;8.85;2.30;;;;;;;;;;5015187;28;20053;-81
2023/09/02 03:40:08;;;;;;;21.08;3.38;;;;;;;;;;5013002;28;20049;-82
2023/09/02 03:42:38;;;;;;;12.45;2.10;;;;;;;;;;5032197;28;20053;-82
2023/09/02 03:45:10;;;;;;;14.95;2.20;;;;;;;;;;5016856;28;20053;-82
2023/09/02 03:47:38;;;;;;;3.95;2.33;;;;;;;;;;4989773;28;21286;-82
2023/09/02 03:50:10;;;;;;;18.30;2.70;;;;;;;;;;5008778;28;20042;-82
2023/09/02 03:52:39;;;;;;;15.52;2.17;;;;;;;;;;4998182;28;20054;-82
2023/09/02 03:55:07;;;;;;;11.23;2.90;;;;;;;;;;4998577;28;20054;-82
2023/09/02 03:57:36;;;;;;;7.28;1.58;;;;;;;;;;5017242;28;20062;-82
2023/09/02 04:00:07;;;;;;;21.92;2.63;;;;;;;;;;5011516;28;20038;-82
2023/09/02 04:02:43;;;;;;;10.48;1.95;;;;;;;;;;5016802;28;20045;-82
2023/09/02 04:05:15;;;;;;;7.05;1.67;;;;;;;;;;5012525;28;20050;-82
2023/09/02 04:07:46;;;;;;;9.02;1.70;;;;;;;;;;5015589;28;20061;-82
2023/09/02 04:10:16;;;;;;;9.57;2.30;;;;;;;;;;4996783;28;20509;-82
2023/09/02 04:12:46;;;;;;;8.43;2.45;;;;;;;;;;5007605;28;20062;-82
2023/09/02 04:15:18;;;;;;;6.80;2.38;;;;;;;;;;4998457;28;20057;-82
2023/09/02 04:17:48;;;;;;;5.75;1.60;;;;;;;;;;4989413;28;20061;-82
2023/09/02 04:20:16;;;;;;;9.73;2.35;;;;;;;;;;5007517;28;20038;-82
2023/09/02 04:22:49;;;;;;;8.25;2.05;;;;;;;;;;5005926;28;20057;-82
2023/09/02 04:25:19;;;;;;;9.90;2.78;;;;;;;;;;4992930;28;20048;-82
2023/09/02 04:27:49;;;;;;;13.85;3.03;;;;;;;;;;5007203;28;20053;-82
2023/09/02 04:30:24;;;;;;;20.80;2.55;;;;;;;;;;5012045;28;20042;-82
2023/09/02 04:32:56;;;;;;;21.13;4.93;;;;;;;;;;4984351;28;20061;-82
2023/09/02 04:35:27;;;;;;;5.72;1.42;;;;;;;;;;5014496;28;20057;-82
2023/09/02 04:37:56;;;;;;;5.40;1.40;;;;;;;;;;4987846;28;20069;-82
2023/09/02 04:40:27;;;;;;;15.32;3.15;;;;;;;;;;5026860;28;20085;-82
2023/09/02 04:42:57;;;;;;;9.32;2.00;;;;;;;;;;5012013;28;20060;-82
2023/09/02 04:45:25;;;;;;;4.88;1.92;;;;;;;;;;5001648;28;20053;-82
2023/09/02 04:47:55;;;;;;;8.20;2.42;;;;;;;;;;5018882;28;20523;-82
2023/09/02 04:50:26;;;;;;;13.90;2.70;;;;;;;;;;4990347;28;20108;-82
2023/09/02 04:52:55;;;;;;;9.63;2.30;;;;;;;;;;5010500;28;20046;-82
2023/09/02 04:55:27;;;;;;;7.65;1.55;;;;;;;;;;5026439;28;20048;-82
2023/09/02 04:57:58;;;;;;;4.20;1.88;;;;;;;;;;5011715;28;20061;-82
2023/09/02 05:00:31;;;;;;;4.63;1.75;;;;;;;;;;5013922;28;20049;-82
2023/09/02 05:03:01;;;;;;;5.82;1.42;;;;;;;;;;5011811;28;20381;-82
2023/09/02 05:05:31;;;;;;;3.78;2.00;;;;;;;;;;4986635;28;20059;-82
2023/09/02 05:07:59;;;;;;;2.53;1.65;;;;;;;;;;5013089;28;20050;-82
2023/09/02 05:10:30;;;;;;;1.38;1.17;;;;;;;;;;5002870;28;20054;-82
2023/09/02 05:12:58;;;;;;;6.10;1.77;;;;;;;;;;5010552;28;20057;-82
2023/09/02 05:15:25;;;;;;;2.65;1.33;;;;;;;;;;5014764;28;20046;-82
2023/09/02 05:17:57;;;;;;;4.10;1.42;;;;;;;;;;4992237;28;20410;-82
2023/09/02 05:20:27;;;;;;;1.50;1.40;;;;;;;;;;5023036;28;20400;-81
2023/09/02 05:22:57;;;;;;;2.08;1.35;;;;;;;;;;5013355;28;20058;-81
2023/09/02 05:25:27;;;;;;;2.13;1.27;;;;;;;;;;4992084;28;20089;-81
2023/09/02 05:27:57;;;;;;;3.15;1.77;;;;;;;;;;4998961;28;20053;-80
2023/09/02 05:30:26;;;;;;;1.50;1.02;;;;;;;;;;4989254;28;20051;-80
2023/09/02 05:32:54;;;;;;;1.13;0.95;;;;;;;;;;5007045;28;20057;-80
2023/09/02 05:35:23;;;;;;;1.48;0.90;;;;;;;;;;5004099;28;20050;-82
2023/09/02 05:37:51;;;;;;;1.60;1.40;;;;;;;;;;4982814;28;20050;-81
2023/09/02 05:40:18;;;;;;;3.22;1.20;;;;;;;;;;4985527;28;20042;-81
2023/09/02 05:42:47;;;;;;;2.78;1.23;;;;;;;;;;5012986;28;20045;-81
2023/09/02 05:45:16;;;;;;;1.30;0.93;;;;;;;;;;4986091;28;20046;-81
2023/09/02 05:47:48;;;;;;;1.33;1.00;;;;;;;;;;5009953;28;20415;-81
2023/09/02 05:50:16;;;;;;;6.78;0.82;;;;;;;;;;5005363;28;20034;-81
2023/09/02 05:52:43;;;;;;;3.05;0.80;;;;;;;;;;5013135;28;20058;-81
2023/09/02 05:55:11;;;;;;;4.28;0.80;;;;;;;;;;4990511;28;20055;-81
2023/09/02 05:57:38;;;;;;;1.65;0.90;;;;;;;;;;5007871;28;20049;-81
2023/09/02 06:00:09;;;;;;;1.58;0.93;;;;;;;;;;5006993;28;20045;-81
2023/09/02 06:02:46;;;;;;;1.67;0.70;;;;;;;;;;5013042;28;20420;-81
2023/09/02 06:05:15;;;;;;;0.95;0.70;;;;;;;;;;4995297;28;20400;-81
2023/09/02 06:07:42;;;;;;;0.85;0.70;;;;;;;;;;4998729;28;20500;-81
2023/09/02 06:10:12;;;;;;;0.88;0.80;;;;;;;;;;5003017;28;20064;-81
2023/09/02 06:12:42;;;;;;;1.05;0.70;;;;;;;;;;5001973;28;20058;-81
2023/09/02 06:15:12;;;;;;;0.77;0.77;;;;;;;;;;5020416;28;20701;-81
2023/09/02 06:17:41;;;;;;;1.55;0.90;;;;;;;;;;4992792;28;20050;-81
2023/09/02 06:20:15;;;;;;;2.00;0.82;;;;;;;;;;5008115;28;20496;-81
2023/09/02 06:22:44;;;;;;;1.27;0.95;;;;;;;;;;5010678;28;20050;-81
2023/09/02 06:25:12;;;;;;;1.98;1.02;;;;;;;;;;5001765;28;20045;-81
2023/09/02 06:27:39;;;;;;;5.38;3.13;;;;;;;;;;5002105;28;20046;-81
2023/09/02 06:30:07;;;;;;;4.60;1.10;;;;;;;;;;5002948;28;20052;-81
2023/09/02 06:32:35;;;;;;;2.40;1.27;;;;;;;;;;4999818;28;20057;-82
2023/09/02 06:35:04;;;;;;;1.48;0.85;;;;;;;;;;5018557;28;20054;-82
2023/09/02 06:37:33;;;;;;;2.55;0.73;;;;;;;;;;5007753;28;20054;-82
2023/09/02 06:40:00;;;;;;;2.28;0.90;;;;;;;;;;5017036;28;20042;-82
2023/09/02 06:42:30;;;;;;;3.53;0.80;;;;;;;;;;5010652;28;20081;-82
2023/09/02 06:44:57;;;;;;;1.90;0.70;;;;;;;;;;5016160;28;20054;-82
2023/09/02 06:47:24;;;;;;;1.02;0.60;;;;;;;;;;5003503;28;20042;-82
2023/09/02 06:49:56;;;;;;;1.55;0.95;;;;;;;;;;5000287;28;20412;-82
2023/09/02 06:52:29;;;;;;;1.00;0.90;;;;;;;;;;5003391;28;20401;-82
2023/09/02 06:54:59;;;;;;;1.27;0.55;;;;;;;;;;4998929;28;20050;-83
2023/09/02 06:57:29;;;;;;;1.27;0.90;;;;;;;;;;5017979;28;20056;-81
2023/09/02 06:59:59;;;;;;;1.00;0.68;;;;;;;;;;4987214;28;20069;-81
2023/09/02 07:02:29;;;;;;;1.58;0.85;;;;;;;;;;4995892;28;20081;-80
2023/09/02 07:05:01;;;;;;;4.05;0.82;;;;;;;;;;5007109;28;20049;-81
2023/09/02 07:07:31;;;;;;;1.30;0.80;;;;;;;;;;4999256;28;20065;-81
2023/09/02 07:10:02;;;;;;;0.63;0.63;;;;;;;;;;5000128;28;20057;-81
2023/09/02 07:12:29;;;;;;;0.98;0.82;;;;;;;;;;5017171;28;20046;-81
2023/09/02 07:14:58;;;;;;;0.73;0.63;;;;;;;;;;5002548;28;20057;-81
2023/09/02 07:17:31;;;;;;;0.98;0.63;;;;;;;;;;5007133;28;20493;-81
2023/09/02 07:19:58;;;;;;;0.75;0.70;;;;;;;;;;4998214;28;20505;-81
2023/09/02 07:22:30;;;;;;;6.40;0.95;;;;;;;;;;5014211;28;20405;-81
2023/09/02 07:24:58;;;;;;;0.98;0.88;;;;;;;;;;5014796;28;20065;-81
2023/09/02 07:27:26;;;;;;;0.52;0.50;;;;;;;;;;4988255;28;20428;-81
2023/09/02 07:29:54;;;;;;;2.03;0.80;;;;;;;;;;4996150;28;20052;-81
2023/09/02 07:32:21;;;;;;;3.90;1.08;;;;;;;;;;4997378;28;20500;-81
2023/09/02 07:34:48;;;;;;;3.53;0.80;;;;;;;;;;5021265;28;20042;-80
2023/09/02 07:37:18;;;;;;;0.88;0.45;;;;;;;;;;5018828;28;20053;-80
2023/09/02 07:39:50;;;;;;;1.48;0.70;;;;;;;;;;4996259;28;20100;-82
2023/09/02 07:42:17;;;;;;;0.63;0.60;;;;;;;;;;5013724;28;20057;-81
2023/09/02 07:44:45;;;;;;;2.05;0.65;;;;;;;;;;5001949;28;20400;-81
2023/09/02 07:47:13;;;;;;;0.77;0.60;;;;;;;;;;5008807;28;20050;-82
2023/09/02 07:49:40;;;;;;;1.38;0.80;;;;;;;;;;5002830;28;20050;-81
2023/09/02 07:52:07;;;;;;;1.33;0.88;;;;;;;;;;5007432;28;20046;-81
2023/09/02 07:54:34;;;;;;;0.73;0.65;;;;;;;;;;5005396;28;20042;-81
2023/09/02 07:57:02;;;;;;;8.57;1.15;;;;;;;;;;5003380;28;20062;-82
2023/09/02 07:59:31;;;;;;;2.70;0.88;;;;;;;;;;4995776;28;20085;-81
2023/09/02 08:02:00;;;;;;;1.10;0.63;;;;;;;;;;5013178;28;20053;-81
2023/09/02 08:04:27;;;;;;;1.13;0.55;;;;;;;;;;5009944;28;20058;-81
2023/09/02 08:06:59;;;;;;;5.07;0.80;;;;;;;;;;4994017;28;20416;-81
2023/09/02 08:09:26;;;;;;;5.97;0.70;;;;;;;;;;5002661;28;20050;-81
2023/09/02 08:11:56;;;;;;;0.82;0.80;;;;;;;;;;4993556;28;20050;-82
2023/09/02 08:14:23;;;;;;;1.13;0.80;;;;;;;;;;4989195;28;20061;-82
2023/09/02 08:16:52;;;;;;;1.52;0.90;;;;;;;;;;4981968;28;20046;-81
2023/09/02 08:19:21;;;;;;;1.33;0.80;;;;;;;;;;5007130;28;20053;-81
2023/09/02 08:21:51;;;;;;;1.05;0.80;;;;;;;;;;4996912;28;20046;-81
2023/09/02 08:24:20;;;;;;;1.65;0.70;;;;;;;;;;5005655;28;20057;-82
2023/09/02 08:26:50;;;;;;;2.42;0.90;;;;;;;;;;5003605;28;20050;-81
2023/09/02 08:29:22;;;;;;;2.58;1.10;;;;;;;;;;5001270;28;20057;-81
2023/09/02 08:31:55;;;;;;;1.67;0.90;;;;;;;;;;4996057;28;20493;-81
2023/09/02 08:34:24;;;;;;;1.45;0.90;;;;;;;;;;5003232;28;20416;-82
2023/09/02 08:36:51;;;;;;;2.25;0.82;;;;;;;;;;5004026;28;20062;-82
2023/09/02 08:39:18;;;;;;;3.05;1.25;;;;;;;;;;4988706;28;20054;-82
2023/09/02 08:41:52;;;;;;;0.90;0.77;;;;;;;;;;5006905;28;20046;-81
2023/09/02 08:44:20;;;;;;;2.60;1.25;;;;;;;;;;4983264;28;20493;-81
2023/09/02 08:46:52;;;;;;;1.42;1.02;;;;;;;;;;5014775;28;20541;-81
2023/09/02 08:49:25;;;;;;;2.75;1.00;;;;;;;;;;4997392;28;20054;-81
2023/09/02 08:51:53;;;;;;;0.98;0.82;;;;;;;;;;5020291;28;20046;-81
2023/09/02 08:54:22;;;;;;;1.40;1.17;;;;;;;;;;4993101;28;20046;-82
2023/09/02 08:56:49;;;;;;;1.45;0.95;;;;;;;;;;5004981;28;20057;-82
2023/09/02 08:59:16;;;;;;;1.90;1.10;;;;;;;;;;5007182;28;20069;-81
2023/09/02 09:01:45;;;;;;;1.20;1.00;;;;;;;;;;4996378;28;20057;-83
2023/09/02 09:04:15;;;;;;;0.85;0.75;;;;;;;;;;5024555;28;20048;-83
2023/09/02 09:06:46;;;;;;;1.15;1.00;;;;;;;;;;5001928;28;20551;-82
2023/09/02 09:09:17;;;;;;;1.35;0.82;;;;;;;;;;5010193;28;20080;-82
2023/09/02 09:11:47;;;;;;;4.18;0.68;;;;;;;;;;5005379;28;20060;-81
2023/09/02 09:14:22;;;;;;;1.38;0.85;;;;;;;;;;5001207;28;20057;-81
2023/09/02 09:16:53;;;;;;;1.33;0.77;;;;;;;;;;5004840;28;20066;-81
2023/09/02 09:19:30;;;;;;;1.27;0.98;;;;;;;;;;5003092;28;20057;-81
2023/09/02 09:22:02;;;;;;;2.25;0.93;;;;;;;;;;4999229;28;20576;-81
2023/09/02 09:24:31;;;;;;;1.45;0.85;;;;;;;;;;5005849;28;20072;-82
2023/09/02 09:27:05;;;;;;;2.25;1.08;;;;;;;;;;5005269;28;20060;-81
2023/09/02 09:29:39;;;;;;;16.15;6.90;;;;;;;;;;5004151;28;20487;-81
2023/09/02 09:32:10;;;;;;;4.95;1.20;;;;;;;;;;5001539;28;20046;-82
2023/09/02 09:34:41;;;;;;;1.80;1.10;;;;;;;;;;5002869;28;20057;-82
2023/09/02 09:37:15;;;;;;;2.05;0.80;;;;;;;;;;5000043;28;20058;-81
2023/09/02 09:39:46;;;;;;;2.83;1.30;;;;;;;;;;4999981;28;20504;-81
2023/09/02 09:42:17;;;;;;;2.95;1.02;;;;;;;;;;4980702;28;20085;-82
2023/09/02 09:44:54;;;;;;;1.75;1.25;;;;;;;;;;5006686;28;20065;-82
2023/09/02 09:47:26;;;;;;;16.20;8.23;;;;;;;;;;5010213;28;20041;-81
2023/09/02 09:50:11;;;;;;;1.48;1.05;;;;;;;;;;5002597;28;20077;-81
2023/09/02 09:52:40;;;;;;;1.42;1.30;;;;;;;;;;5001007;28;20046;-81
2023/09/02 09:55:23;;;;;;;1.35;0.80;;;;;;;;;;4993310;28;20057;-81
2023/09/02 09:57:54;;;;;;;2.15;1.30;;;;;;;;;;4998117;28;20058;-81
2023/09/02 10:00:23;;;;;;;4.32;0.98;;;;;;;;;;5017393;28;20049;-81
2023/09/02 10:02:52;;;;;;;4.35;1.10;;;;;;;;;;4999304;28;20050;-82
2023/09/02 10:05:24;;;;;;;1.63;1.20;;;;;;;;;;4989183;28;20046;-82
2023/09/02 10:08:03;;;;;;;2.50;1.50;;;;;;;;;;4996399;28;20054;-81
2023/09/02 10:10:35;;;;;;;1.77;1.15;;;;;;;;;;4988963;28;20418;-84
2023/09/02 10:13:06;;;;;;;2.35;1.67;;;;;;;;;;5005287;28;20048;-81
2023/09/02 10:15:35;;;;;;;1.67;1.02;;;;;;;;;;5001535;28;20056;-81
2023/09/02 10:18:05;;;;;;;5.90;1.85;;;;;;;;;;5004571;28;20049;-81
2023/09/02 10:20:34;;;;;;;1.58;1.05;;;;;;;;;;4989408;28;20053;-81
2023/09/02 10:23:17;;;;;;;2.83;1.33;;;;;;;;;;5026378;28;20675;-81
2023/09/02 10:26:01;;;;;;;1.83;1.23;;;;;;;;;;5011846;28;20049;-82
2023/09/02 10:28:41;;;;;;;1.73;1.15;;;;;;;;;;4982392;28;20050;-82
2023/09/02 10:31:40;;;;;;;4.10;1.75;;;;;;;;;;5003276;28;20397;-82
2023/09/02 10:34:40;;;;;;;1.48;1.00;;;;;;;;;;4988042;28;20412;-82
2023/09/02 10:37:14;;;;;;;1.70;1.08;;;;;;;;;;4998561;28;20377;-82
2023/09/02 10:39:52;;;;;;;1.58;1.38;;;;;;;;;;4997951;28;20055;-83
2023/09/02 10:42:19;;;;;;;;;;;;;;;;;;5005363;28;20046;-83
2023/09/02 10:44:49;;;;;;;2.45;1.52;;;;;;;;;;4983441;28;20004;-83
2023/09/02 10:47:19;;;;;;;;;;;;;;;;;;5006095;28;20053;-84
2023/09/02 10:50:00;;;;;;;3.08;1.23;;;;;;;;;;4998823;28;19925;-83
2023/09/02 10:53:01;;;;;;;3.35;1.58;;;;;;;;;;5021932;28;20064;-84
2023/09/02 10:55:34;;;;;;;1.00;0.90;;;;;;;;;;4988740;28;20057;-82
2023/09/02 10:58:11;;;;;;;3.38;1.50;;;;;;;;;;5006945;28;20057;-82
2023/09/02 11:00:47;;;;;;;1.35;1.08;;;;;;;;;;4981185;28;20050;-83
2023/09/02 11:03:42;;;;;;;3.55;2.28;;;;;;;;;;4995876;28;20046;-83
2023/09/02 11:06:26;;;;;;;4.10;1.50;;;;;;;;;;5006717;28;20074;-84
2023/09/02 11:09:52;;;;;;;2.35;1.73;;;;;;;;;;5006397;28;20046;-83
2023/09/02 11:12:54;;;;;;;1.60;1.20;;;;;;;;;;5003383;28;20053;-83
2023/09/02 11:15:28;;;;;;;2.17;1.40;;;;;;;;;;5001770;28;20060;-83
2023/09/02 11:17:55;;;;;;;1.55;1.33;;;;;;;;;;4988132;28;20507;-83
2023/09/02 11:20:55;;;;;;;1.30;1.20;;;;;;;;;;5005261;28;20053;-83
2023/09/02 11:24:13;;;;;;;3.42;1.67;;;;;;;;;;4995697;28;20133;-83
2023/09/02 11:26:53;;;;;;;4.05;1.58;;;;;;;;;;5000741;28;20428;-83
2023/09/02 11:29:24;;;;;;;1.13;0.88;;;;;;;;;;5007980;28;20064;-83
2023/09/02 11:32:00;;;;;;;1.88;1.48;;;;;;;;;;4998899;28;20053;-83
2023/09/02 11:34:33;;;;;;;3.20;1.35;;;;;;;;;;5002539;28;20062;-83
2023/09/02 11:37:11;;;;;;;6.00;1.95;;;;;;;;;;5015090;28;20050;-84
2023/09/02 11:39:38;;;;;;;2.90;1.40;;;;;;;;;;5004909;28;20049;-84
2023/09/02 11:42:14;;;;;;;1.83;1.48;;;;;;;;;;5004861;28;20053;-84
2023/09/02 11:45:16;;;;;;;2.38;2.13;;;;;;;;;;4990263;28;20069;-84
2023/09/02 11:47:53;;;;;;;3.88;1.50;;;;;;;;;;5000858;28;20050;-83
2023/09/02 11:50:35;;;;;;;2.25;1.30;;;;;;;;;;5012587;28;20061;-84
2023/09/02 11:53:11;;;;;;;2.65;1.52;;;;;;;;;;5018803;28;20053;-84
2023/09/02 11:55:53;;;;;;;2.55;1.38;;;;;;;;;;5007259;28;20065;-84
2023/09/02 11:58:25;;;;;;;1.70;1.30;;;;;;;;;;4999818;28;20068;-84
2023/09/02 12:00:55;;;;;;;2.10;1.45;;;;;;;;;;5011229;28;20057;-84
2023/09/02 12:03:31;;;;;;;1.75;1.33;;;;;;;;;;5004003;28;20061;-84
2023/09/02 12:06:04;;;;;;;1.67;1.10;;;;;;;;;;4993620;28;20050;-84
2023/09/02 12:08:32;;;;;;;2.03;1.20;;;;;;;;;;5000704;28;20060;-84
2023/09/02 12:11:03;;;;;;;2.70;1.20;;;;;;;;;;5003641;28;20065;-84
2023/09/02 12:13:33;;;;;;;1.00;0.90;;;;;;;;;;5020749;28;20052;-84
2023/09/02 12:16:02;;;;;;;1.42;1.20;;;;;;;;;;4981873;28;20081;-84
2023/09/02 12:18:30;;;;;;;1.42;1.10;;;;;;;;;;5011192;28;20054;-84
2023/09/02 12:21:00;;;;;;;2.40;1.42;;;;;;;;;;5003011;28;20054;-86
2023/09/02 12:23:32;;;;;;;4.22;1.02;;;;;;;;;;5001830;28;20041;-84
2023/09/02 12:26:08;;;;;;;1.25;0.90;;;;;;;;;;5005208;28;20049;-84
2023/09/02 12:28:38;;;;;;;1.92;1.10;;;;;;;;;;5004986;28;20046;-84
2023/09/02 12:31:05;;;;;;;1.63;1.20;;;;;;;;;;4976107;28;20068;-84
2023/09/02 12:33:39;;;;;;;1.50;1.00;;;;;;;;;;5008775;28;20045;-84
2023/09/02 12:36:08;;;;;;;1.10;0.93;;;;;;;;;;5006481;28;20113;-84
2023/09/02 12:38:49;;;;;;;1.58;1.02;;;;;;;;;;5007544;28;20512;-84
2023/09/02 12:41:18;;;;;;;1.67;1.02;;;;;;;;;;5008092;28;20054;-84
2023/09/02 12:43:45;;;;;;;1.52;1.27;;;;;;;;;;5002435;28;20054;-84
2023/09/02 12:46:19;;;;;;;1.50;1.33;;;;;;;;;;5007125;28;20049;-84
2023/09/02 12:48:52;;;;;;;1.77;1.23;;;;;;;;;;5011403;28;20053;-85
2023/09/02 12:51:27;;;;;;;1.38;1.27;;;;;;;;;;5009801;28;20076;-84
2023/09/02 12:53:54;;;;;;;;;;;;;;;;;;5008147;28;20496;-83
2023/09/02 12:56:24;;;;;;;2.60;1.23;;;;;;;;;;5025060;28;19932;-83
2023/09/02 12:58:53;;;;;;;2.10;1.23;;;;;;;;;;5010255;28;20050;-84
2023/09/02 13:01:23;;;;;;;2.47;1.17;;;;;;;;;;5004467;28;20045;-84
2023/09/02 13:03:54;;;;;;;7.07;1.98;;;;;;;;;;5009712;28;20042;-83
2023/09/02 13:06:21;;;;;;;2.10;1.50;;;;;;;;;;4990509;28;20057;-84
2023/09/02 13:08:55;;;;;;;2.60;1.65;;;;;;;;;;5006512;28;20053;-83
2023/09/02 13:11:25;;;;;;;2.50;1.20;;;;;;;;;;4992400;28;20057;-83
2023/09/02 13:13:57;;;;;;;1.88;1.25;;;;;;;;;;5025751;28;20428;-83
2023/09/02 13:16:28;;;;;;;1.40;1.10;;;;;;;;;;4991477;28;20054;-83
2023/09/02 13:18:59;;;;;;;3.00;1.48;;;;;;;;;;5007695;28;20523;-83
2023/09/02 13:21:30;;;;;;;2.50;1.50;;;;;;;;;;5012431;28;20045;-83
2023/09/02 13:24:02;;;;;;;3.15;1.98;;;;;;;;;;5024240;28;20057;-83
2023/09/02 13:26:30;;;;;;;1.30;1.20;;;;;;;;;;5010492;28;20057;-83
2023/09/02 13:29:01;;;;;;;1.23;0.93;;;;;;;;;;5005714;28;20046;-83
2023/09/02 13:31:29;;;;;;;4.88;1.40;;;;;;;;;;5007321;28;20503;-83
2023/09/02 13:33:56;;;;;;;1.48;1.35;;;;;;;;;;4996854;28;20054;-83
2023/09/02 13:36:27;;;;;;;2.25;1.35;;;;;;;;;;5011604;28;20044;-83
2023/09/02 13:39:00;;;;;;;1.98;1.20;;;;;;;;;;4995288;28;20042;-83
2023/09/02 13:41:29;;;;;;;3.70;1.13;;;;;;;;;;4995248;28;20505;-83
2023/09/02 13:43:56;;;;;;;1.17;0.88;;;;;;;;;;5017886;28;20045;-83
2023/09/02 13:46:28;;;;;;;1.20;1.10;;;;;;;;;;5007222;28;20400;-83
2023/09/02 13:48:58;;;;;;;3.80;1.45;;;;;;;;;;5039742;22;20045;-84
2023/09/02 13:51:27;;;;;;;2.65;1.20;;;;;;;;;;4993438;28;20041;-84
2023/09/02 13:53:55;;;;;;;3.85;1.10;;;;;;;;;;4990590;28;20054;-84
2023/09/02 13:56:22;;;;;;;2.92;1.65;;;;;;;;;;4990086;28;20524;-84
2023/09/02 13:58:51;;;;;;;4.05;1.27;;;;;;;;;;4991462;28;20065;-84
2023/09/02 14:01:18;;;;;;;3.38;1.80;;;;;;;;;;4989860;28;20054;-84
2023/09/02 14:03:55;;;;;;;1.33;1.00;;;;;;;;;;4973965;28;20046;-84
2023/09/02 14:06:41;;;;;;;1.73;1.20;;;;;;;;;;4990253;28;20432;-84
2023/09/02 14:09:18;;;;;;;4.95;1.33;;;;;;;;;;4987692;28;20054;-83
2023/09/02 14:11:45;;;;;;;2.22;1.30;;;;;;;;;;4974250;28;20393;-84
2023/09/02 14:14:17;;;;;;;1.52;1.00;;;;;;;;;;4991137;28;20049;-83
2023/09/02 14:16:44;;;;;;;1.15;0.82;;;;;;;;;;4986336;28;20425;-83
2023/09/02 14:19:15;;;;;;;1.25;1.10;;;;;;;;;;5006978;28;20054;-83
2023/09/02 14:21:44;;;;;;;1.58;1.45;;;;;;;;;;4987086;28;20054;-84
2023/09/02 14:24:11;;;;;;;2.70;1.67;;;;;;;;;;4975780;28;20204;-84
2023/09/02 14:26:43;;;;;;;1.63;1.30;;;;;;;;;;4988873;28;20053;-84
2023/09/02 14:29:21;;;;;;;2.28;1.00;;;;;;;;;;4989311;28;20053;-84
2023/09/02 14:31:51;;;;;;;2.40;1.10;;;;;;;;;;4983902;28;20050;-84
2023/09/02 14:34:21;;;;;;;3.13;1.27;;;;;;;;;;4999337;28;20523;-83
2023/09/02 14:36:50;;;;;;;3.45;1.30;;;;;;;;;;4989554;28;20050;-83
2023/09/02 14:39:17;;;;;;;1.55;1.08;;;;;;;;;;4993258;28;20055;-83
2023/09/02 14:42:08;;;;;;;3.35;1.45;;;;;;;;;;4989653;28;20053;-83
2023/09/02 14:44:35;;;;;;;2.25;1.08;;;;;;;;;;4992276;28;20046;-83
2023/09/02 14:47:07;;;;;;;6.32;1.20;;;;;;;;;;4977874;28;20046;-83
2023/09/02 14:49:50;;;;;;;6.40;1.33;;;;;;;;;;4987676;28;20420;-83
2023/09/02 14:52:37;;;;;;;1.45;0.90;;;;;;;;;;4993230;28;20436;-83
2023/09/02 14:55:08;;;;;;;1.48;1.00;;;;;;;;;;5004718;28;20523;-83
2023/09/02 14:57:44;;;;;;;1.17;0.93;;;;;;;;;;5005521;28;20046;-83
2023/09/02 15:00:15;;;;;;;1.08;0.82;;;;;;;;;;4993282;28;20050;-83
2023/09/02 15:02:51;;;;;;;1.20;0.90;;;;;;;;;;5000747;28;20424;-83
2023/09/02 15:05:30;;;;;;;1.15;0.90;;;;;;;;;;4993595;28;20042;-83
2023/09/02 15:08:06;;;;;;;1.80;1.05;;;;;;;;;;4992929;28;20054;-83
2023/09/02 15:10:34;;;;;;;1.80;1.40;;;;;;;;;;4992678;28;20044;-83